createdAt,value
2022-09-09T00:00:15.762Z,4.60
2022-09-09T00:02:50.923Z,4.30
2022-09-09T00:05:28.428Z,4.50
2022-09-09T00:08:02.625Z,3.20
2022-09-09T00:10:35.498Z,1.50
2022-09-09T00:13:19.102Z,1.00
2022-09-09T00:15:58.642Z,1.60
2022-09-09T00:18:33.266Z,1.60
2022-09-09T00:21:09.157Z,1.30
2022-09-09T00:23:43.062Z,1.80
2022-09-09T00:26:19.306Z,1.20
2022-09-09T00:28:58.803Z,2.50
2022-09-09T00:31:31.836Z,1.10
2022-09-09T00:34:06.573Z,1.00
2022-09-09T00:36:37.484Z,1.00
2022-09-09T00:39:07.619Z,1.00
2022-09-09T00:41:48.124Z,1.00
2022-09-09T00:44:31.795Z,1.20
2022-09-09T00:47:15.765Z,1.80
2022-09-09T00:49:59.291Z,1.70
2022-09-09T00:52:40.846Z,1.00
2022-09-09T00:55:19.781Z,1.00
2022-09-09T00:57:52.853Z,1.10
2022-09-09T01:00:31.576Z,1.90
2022-09-09T01:03:14.016Z,1.00
2022-09-09T01:05:49.056Z,1.00
2022-09-09T01:08:35.909Z,1.00
2022-09-09T01:11:05.926Z,1.00
2022-09-09T01:13:39.223Z,1.00
2022-09-09T01:16:14.865Z,1.00
2022-09-09T01:18:48.551Z,1.00
2022-09-09T01:21:26.925Z,1.00
2022-09-09T01:24:21.441Z,1.00
2022-09-09T01:26:55.167Z,1.00
2022-09-09T01:29:25.685Z,1.00
2022-09-09T01:32:00.607Z,1.00
2022-09-09T01:34:35.120Z,1.00
2022-09-09T01:37:09.310Z,1.00
2022-09-09T01:39:40.950Z,1.00
2022-09-09T01:42:17.256Z,1.00
2022-09-09T01:44:47.020Z,1.00
2022-09-09T01:47:18.742Z,1.00
2022-09-09T01:49:48.523Z,1.00
2022-09-09T01:52:18.284Z,1.00
2022-09-09T01:54:48.071Z,1.00
2022-09-09T01:57:25.766Z,1.00
2022-09-09T02:00:07.055Z,1.00
2022-09-09T02:02:42.257Z,1.00
2022-09-09T02:05:24.622Z,1.00
2022-09-09T02:07:59.640Z,1.00
2022-09-09T02:10:36.270Z,1.00
2022-09-09T02:13:13.419Z,1.00
2022-09-09T02:15:49.135Z,1.00
2022-09-09T02:18:23.267Z,1.00
2022-09-09T02:20:55.419Z,1.00
2022-09-09T02:23:25.282Z,1.00
2022-09-09T02:25:57.747Z,1.00
2022-09-09T02:28:33.894Z,1.00
2022-09-09T02:31:04.540Z,1.00
2022-09-09T02:33:40.682Z,1.00
2022-09-09T02:36:13.482Z,1.00
2022-09-09T02:38:51.466Z,1.00
2022-09-09T02:41:22.803Z,1.00
2022-09-09T02:43:55.258Z,1.00
2022-09-09T02:46:45.976Z,1.00
2022-09-09T02:49:22.303Z,1.00
2022-09-09T02:51:58.894Z,1.00
2022-09-09T02:54:32.753Z,1.00
2022-09-09T02:57:07.656Z,1.60
2022-09-09T02:59:40.287Z,2.50
2022-09-09T03:02:12.342Z,2.70
2022-09-09T03:04:42.716Z,1.80
2022-09-09T03:07:13.071Z,2.60
2022-09-09T03:09:43.101Z,2.70
2022-09-09T03:12:13.294Z,2.40
2022-09-09T03:14:46.903Z,3.90
2022-09-09T03:17:16.803Z,3.90
2022-09-09T03:19:46.493Z,5.20
2022-09-09T03:22:16.218Z,6.00
2022-09-09T03:24:47.689Z,5.50
2022-09-09T03:27:18.362Z,5.20
2022-09-09T03:29:52.602Z,5.60
2022-09-09T03:32:23.449Z,5.10
2022-09-09T03:34:53.196Z,4.60
2022-09-09T03:37:23.637Z,3.90
2022-09-09T03:39:55.373Z,4.30
2022-09-09T03:42:25.509Z,5.10
2022-09-09T03:44:58.876Z,3.80
2022-09-09T03:47:28.617Z,3.80
2022-09-09T03:49:58.354Z,3.80
2022-09-09T03:52:28.353Z,3.80
2022-09-09T03:54:58.132Z,3.70
2022-09-09T03:57:27.965Z,2.60
2022-09-09T04:00:02.063Z,3.90
2022-09-09T04:02:31.967Z,3.90
2022-09-09T04:05:02.099Z,3.90
2022-09-09T04:07:31.951Z,3.20
2022-09-09T04:10:01.901Z,2.60
2022-09-09T04:12:31.669Z,3.70
2022-09-09T04:15:04.029Z,1.90
2022-09-09T04:17:34.460Z,2.40
2022-09-09T04:20:04.909Z,2.40
2022-09-09T04:22:35.372Z,2.80
2022-09-09T04:25:05.109Z,2.00
2022-09-09T04:27:34.839Z,2.20
2022-09-09T04:30:07.871Z,1.60
2022-09-09T04:32:37.873Z,1.70
2022-09-09T04:35:08.207Z,1.50
2022-09-09T04:37:37.927Z,1.20
2022-09-09T04:40:10.787Z,1.00
2022-09-09T04:42:44.968Z,1.00
2022-09-09T04:45:17.573Z,1.00
2022-09-09T04:47:47.488Z,1.00
2022-09-09T04:50:17.732Z,1.00
2022-09-09T04:52:47.429Z,1.00
2022-09-09T04:55:17.764Z,1.00
2022-09-09T04:57:47.589Z,1.00
2022-09-09T05:00:20.758Z,1.00
2022-09-09T05:02:50.816Z,1.00
2022-09-09T05:05:20.694Z,1.00
2022-09-09T05:07:50.527Z,1.00
2022-09-09T05:10:20.241Z,1.00
2022-09-09T05:12:57.160Z,1.00
2022-09-09T05:15:29.678Z,1.50
2022-09-09T05:18:01.563Z,1.00
2022-09-09T05:20:31.726Z,1.00
2022-09-09T05:23:01.475Z,1.00
2022-09-09T05:25:31.197Z,1.00
2022-09-09T05:28:02.629Z,1.00
2022-09-09T05:30:34.920Z,1.00
2022-09-09T05:33:04.623Z,1.30
2022-09-09T05:35:34.484Z,1.00
2022-09-09T05:38:04.223Z,1.00
2022-09-09T05:40:33.928Z,1.10
2022-09-09T05:43:05.439Z,1.00
2022-09-09T05:45:37.767Z,1.00
2022-09-09T05:48:08.859Z,1.00
2022-09-09T05:50:38.601Z,1.00
2022-09-09T05:53:08.287Z,1.00
2022-09-09T05:55:38.036Z,1.00
2022-09-09T05:58:07.935Z,1.00
2022-09-09T06:00:40.290Z,1.00
2022-09-09T06:03:10.089Z,1.00
2022-09-09T06:05:39.892Z,1.00
2022-09-09T06:08:09.795Z,1.00
2022-09-09T06:10:39.561Z,1.00
2022-09-09T06:13:11.017Z,1.00
2022-09-09T06:15:43.308Z,1.00
2022-09-09T06:18:13.219Z,1.00
2022-09-09T06:20:42.928Z,1.00
2022-09-09T06:23:13.306Z,1.00
2022-09-09T06:25:43.189Z,1.00
2022-09-09T06:28:12.899Z,1.00
2022-09-09T06:30:45.568Z,1.00
2022-09-09T06:33:15.329Z,1.00
2022-09-09T06:35:45.928Z,1.00
2022-09-09T06:38:15.655Z,1.00
2022-09-09T06:40:45.361Z,1.00
2022-09-09T06:43:15.328Z,1.00
2022-09-09T06:45:47.616Z,1.00
2022-09-09T06:48:17.314Z,1.00
2022-09-09T06:50:47.900Z,1.00
2022-09-09T06:53:20.456Z,1.00
2022-09-09T06:55:50.760Z,1.00
2022-09-09T06:58:20.443Z,1.00
2022-09-09T07:00:53.950Z,1.00
2022-09-09T07:03:23.651Z,1.00
2022-09-09T07:05:58.962Z,1.00
2022-09-09T07:08:29.199Z,1.00
2022-09-09T07:11:10.215Z,1.00
2022-09-09T07:13:43.093Z,1.00
2022-09-09T07:16:17.471Z,1.00
2022-09-09T07:18:47.608Z,1.00
2022-09-09T07:21:18.317Z,1.00
2022-09-09T07:23:50.917Z,1.00
2022-09-09T07:26:22.870Z,1.00
2022-09-09T07:28:53.029Z,1.00
2022-09-09T07:31:27.341Z,1.00
2022-09-09T07:33:57.224Z,1.00
2022-09-09T07:36:33.088Z,1.00
2022-09-09T07:39:05.541Z,1.00
2022-09-09T07:41:37.611Z,1.00
2022-09-09T07:44:11.771Z,1.00
2022-09-09T07:46:46.130Z,1.00
2022-09-09T07:49:16.316Z,1.00
2022-09-09T07:51:49.051Z,1.00
2022-09-09T07:54:21.600Z,1.00
2022-09-09T07:56:51.373Z,1.00
2022-09-09T07:59:21.126Z,1.00
2022-09-09T08:01:55.828Z,1.00
2022-09-09T08:04:27.665Z,1.00
2022-09-09T08:06:59.286Z,1.00
2022-09-09T08:09:33.371Z,1.00
2022-09-09T08:12:03.630Z,1.00
2022-09-09T08:14:33.345Z,1.00
2022-09-09T08:17:05.685Z,1.00
2022-09-09T08:19:36.884Z,1.00
2022-09-09T08:22:07.064Z,1.00
2022-09-09T08:24:36.987Z,1.00
2022-09-09T08:27:07.578Z,1.00
2022-09-09T08:29:38.905Z,1.00
2022-09-09T08:32:11.224Z,1.00
2022-09-09T08:34:41.564Z,1.00
2022-09-09T08:37:11.401Z,1.00
2022-09-09T08:39:41.131Z,1.00
2022-09-09T08:42:28.935Z,1.00
2022-09-09T08:45:14.901Z,1.00
2022-09-09T08:47:58.779Z,1.00
2022-09-09T08:50:30.939Z,1.00
2022-09-09T08:53:06.843Z,1.00
2022-09-09T08:55:45.095Z,1.00
2022-09-09T08:58:19.028Z,1.00
2022-09-09T09:01:09.711Z,1.00
2022-09-09T09:03:51.619Z,1.00
2022-09-09T09:06:35.421Z,1.00
2022-09-09T09:09:09.749Z,1.00
2022-09-09T09:11:41.593Z,1.00
2022-09-09T09:14:16.867Z,1.00
2022-09-09T09:16:54.647Z,1.00
2022-09-09T09:19:27.650Z,1.00
2022-09-09T09:22:04.438Z,1.00
2022-09-09T09:24:45.934Z,1.00
2022-09-09T09:27:17.934Z,1.00
2022-09-09T09:30:17.555Z,1.00
2022-09-09T09:32:42.808Z,1.00
2022-09-09T09:35:17.519Z,1.00
2022-09-09T09:40:37.523Z,1.00
2022-09-09T09:43:09.694Z,1.00
2022-09-09T09:45:55.366Z,1.00
2022-09-09T09:48:31.817Z,1.00
2022-09-09T09:51:08.240Z,1.00
2022-09-09T09:53:40.266Z,1.00
2022-09-09T09:56:12.961Z,1.00
2022-09-09T09:58:54.987Z,1.00
2022-09-09T10:01:28.770Z,1.00
2022-09-09T10:04:06.528Z,1.00
2022-09-09T10:06:41.673Z,1.00
2022-09-09T10:09:25.989Z,1.00
2022-09-09T10:11:59.295Z,1.00
2022-09-09T10:14:39.027Z,1.00
2022-09-09T10:17:29.373Z,1.00
2022-09-09T10:20:20.288Z,1.00
2022-09-09T10:22:55.833Z,1.00
2022-09-09T10:25:48.466Z,1.00
2022-09-09T10:28:35.928Z,1.00
2022-09-09T10:31:18.375Z,1.00
2022-09-09T10:33:54.272Z,1.00
2022-09-09T10:36:27.016Z,1.00
2022-09-09T10:39:04.651Z,1.00
2022-09-09T10:41:49.535Z,1.00
2022-09-09T10:44:35.396Z,1.00
2022-09-09T10:47:21.425Z,1.00
2022-09-09T10:50:16.484Z,1.00
2022-09-09T10:52:56.900Z,1.00
2022-09-09T10:55:37.242Z,1.00
2022-09-09T10:58:09.386Z,1.00
2022-09-09T11:00:44.011Z,1.00
2022-09-09T11:03:23.442Z,1.00
2022-09-09T11:05:58.461Z,1.00
2022-09-09T11:08:30.587Z,1.00
2022-09-09T11:11:06.762Z,1.00
2022-09-09T11:13:43.777Z,1.00
2022-09-09T11:16:27.294Z,1.00
2022-09-09T11:19:03.459Z,1.00
2022-09-09T11:21:38.191Z,1.00
2022-09-09T11:24:14.212Z,1.00
2022-09-09T11:26:51.279Z,1.00
2022-09-09T11:29:51.783Z,1.00
2022-09-09T11:32:45.542Z,1.00
2022-09-09T11:35:30.899Z,1.00
2022-09-09T11:38:23.237Z,1.00
2022-09-09T11:41:01.574Z,1.00
2022-09-09T11:43:36.782Z,1.00
2022-09-09T11:46:08.390Z,1.00
2022-09-09T11:48:39.685Z,1.00
2022-09-09T11:51:16.711Z,1.00
2022-09-09T11:53:54.809Z,1.00
2022-09-09T11:56:30.900Z,1.00
2022-09-09T11:59:08.275Z,1.00
2022-09-09T12:01:40.257Z,1.00
2022-09-09T12:04:22.374Z,1.00
2022-09-09T12:06:56.172Z,1.00
2022-09-09T12:09:32.667Z,1.00
2022-09-09T12:12:29.437Z,1.00
2022-09-09T12:15:04.782Z,1.00
2022-09-09T12:17:40.574Z,1.00
2022-09-09T12:20:18.527Z,1.00
2022-09-09T12:23:16.830Z,1.00
2022-09-09T12:26:07.784Z,1.00
2022-09-09T12:28:48.486Z,1.00
2022-09-09T12:31:27.534Z,1.00
2022-09-09T12:33:57.302Z,1.00
2022-09-09T12:36:32.526Z,1.00
2022-09-09T12:39:13.529Z,1.00
2022-09-09T12:41:43.783Z,1.00
2022-09-09T12:44:14.078Z,1.00
2022-09-09T12:46:49.836Z,1.00
2022-09-09T12:49:35.113Z,1.00
2022-09-09T12:52:08.895Z,1.00
2022-09-09T12:54:40.263Z,1.00
2022-09-09T12:57:16.138Z,1.00
2022-09-09T12:59:49.276Z,1.00
2022-09-09T13:02:26.866Z,1.00
2022-09-09T13:04:57.046Z,1.00
2022-09-09T13:07:27.355Z,1.00
2022-09-09T13:09:57.094Z,1.00
2022-09-09T13:12:27.374Z,1.00
2022-09-09T13:14:59.780Z,1.00
2022-09-09T13:17:32.476Z,1.00
2022-09-09T13:20:03.568Z,1.00
2022-09-09T13:22:37.810Z,1.00
2022-09-09T13:25:20.786Z,1.00
2022-09-09T13:27:57.684Z,1.00
2022-09-09T13:30:33.369Z,1.00
2022-09-09T13:33:24.136Z,1.00
2022-09-09T13:35:57.422Z,1.00
2022-09-09T13:38:27.988Z,1.00
2022-09-09T13:41:03.302Z,1.00
2022-09-09T13:43:35.498Z,1.00
2022-09-09T13:46:07.217Z,1.00
2022-09-09T13:48:39.555Z,1.00
2022-09-09T13:51:29.388Z,1.00
2022-09-09T13:54:00.190Z,1.00
2022-09-09T13:56:30.045Z,1.00
2022-09-09T13:58:59.783Z,1.00
2022-09-09T14:01:29.905Z,1.00
2022-09-09T14:04:02.544Z,1.00
2022-09-09T14:06:33.598Z,1.00
2022-09-09T14:09:03.372Z,1.00
2022-09-09T14:11:33.103Z,1.00
2022-09-09T14:14:02.858Z,1.00
2022-09-09T14:16:32.969Z,1.00
2022-09-09T14:19:05.685Z,1.00
2022-09-09T14:21:35.414Z,1.00
2022-09-09T14:24:05.635Z,1.00
2022-09-09T14:26:35.664Z,1.00
2022-09-09T14:29:05.451Z,1.00
2022-09-09T14:31:35.174Z,1.00
2022-09-09T14:34:07.509Z,1.00
2022-09-09T14:36:37.297Z,1.00
2022-09-09T14:39:07.604Z,1.00
2022-09-09T14:41:37.484Z,1.00
2022-09-09T14:44:07.221Z,1.00
2022-09-09T14:46:36.952Z,1.00
2022-09-09T14:49:09.365Z,1.00
2022-09-09T14:51:39.122Z,1.00
2022-09-09T14:54:09.109Z,1.00
2022-09-09T14:56:39.104Z,1.00
2022-09-09T14:59:08.890Z,1.00
2022-09-09T15:01:38.979Z,1.00
2022-09-09T15:04:11.469Z,1.00
2022-09-09T15:06:43.389Z,1.00
2022-09-09T15:09:13.300Z,1.00
2022-09-09T15:11:43.068Z,1.00
2022-09-09T15:14:13.342Z,1.00
2022-09-09T15:16:43.856Z,1.00
2022-09-09T15:19:16.274Z,1.00
2022-09-09T15:21:46.042Z,1.00
2022-09-09T15:24:17.058Z,1.00
2022-09-09T15:26:46.879Z,1.00
2022-09-09T15:29:16.905Z,1.00
2022-09-09T15:31:46.988Z,1.00
2022-09-09T15:34:19.433Z,1.00
2022-09-09T15:36:49.870Z,1.00
2022-09-09T15:39:22.588Z,1.00
2022-09-09T15:41:52.649Z,1.00
2022-09-09T15:44:24.517Z,1.00
2022-09-09T15:46:55.542Z,1.00
2022-09-09T15:49:29.535Z,1.00
2022-09-09T15:52:03.269Z,1.00
2022-09-09T15:54:36.384Z,1.00
2022-09-09T15:57:10.175Z,1.00
2022-09-09T15:59:41.265Z,1.00
2022-09-09T16:02:11.353Z,1.00
2022-09-09T16:04:43.797Z,1.00
2022-09-09T16:07:14.532Z,1.00
2022-09-09T16:09:44.449Z,1.00
2022-09-09T16:12:15.487Z,1.00
2022-09-09T16:14:46.352Z,1.00
2022-09-09T16:17:16.646Z,1.00
2022-09-09T16:19:49.446Z,1.00
2022-09-09T16:22:19.295Z,1.00
2022-09-09T16:24:49.020Z,1.00
2022-09-09T16:27:19.129Z,1.00
2022-09-09T16:29:50.249Z,1.00
2022-09-09T16:32:20.213Z,1.00
2022-09-09T16:34:52.755Z,1.00
2022-09-09T16:37:22.872Z,1.00
2022-09-09T16:39:52.985Z,1.00
2022-09-09T16:42:22.865Z,1.00
2022-09-09T16:44:52.757Z,1.00
2022-09-09T16:47:22.575Z,1.00
2022-09-09T16:49:54.906Z,1.00
2022-09-09T16:52:24.858Z,1.00
2022-09-09T16:54:54.603Z,1.00
2022-09-09T16:57:24.965Z,1.00
2022-09-09T16:59:56.868Z,1.00
2022-09-09T17:02:26.711Z,1.00
2022-09-09T17:04:59.094Z,1.00
2022-09-09T17:07:29.358Z,1.00
2022-09-09T17:09:59.110Z,1.00
2022-09-09T17:12:29.339Z,1.00
2022-09-09T17:15:00.115Z,1.00
2022-09-09T17:17:32.098Z,1.00
2022-09-09T17:20:07.566Z,1.00
2022-09-09T17:22:37.724Z,1.00
2022-09-09T17:25:08.482Z,1.00
2022-09-09T17:27:38.202Z,1.00
2022-09-09T17:30:08.924Z,1.00
2022-09-09T17:32:39.047Z,1.00
2022-09-09T17:35:12.572Z,1.00
2022-09-09T17:37:42.445Z,1.00
2022-09-09T17:40:12.638Z,1.00
2022-09-09T17:42:43.194Z,1.00
2022-09-09T17:45:13.584Z,1.00
2022-09-09T17:47:43.881Z,1.00
2022-09-09T17:50:16.346Z,1.00
2022-09-09T17:52:46.055Z,1.00
2022-09-09T17:55:16.707Z,1.00
2022-09-09T17:57:47.074Z,1.00
2022-09-09T18:00:17.568Z,1.00
2022-09-09T18:02:48.418Z,1.00
2022-09-09T18:05:21.308Z,1.00
2022-09-09T18:07:51.216Z,1.00
2022-09-09T18:10:21.051Z,1.00
2022-09-09T18:12:50.815Z,1.00
2022-09-09T18:15:33.525Z,1.00
2022-09-09T18:18:09.181Z,1.00
2022-09-09T18:20:41.585Z,1.00
2022-09-09T18:23:11.308Z,1.00
2022-09-09T18:25:42.124Z,1.00
2022-09-09T18:28:12.119Z,1.00
2022-09-09T18:30:43.046Z,1.00
2022-09-09T18:33:12.745Z,1.00
2022-09-09T18:35:46.660Z,1.00
2022-09-09T18:38:17.619Z,1.00
2022-09-09T18:40:47.450Z,1.00
2022-09-09T18:43:17.614Z,1.00
2022-09-09T18:45:47.309Z,1.00
2022-09-09T18:48:17.032Z,1.00
2022-09-09T18:50:49.759Z,1.00
2022-09-09T18:53:19.489Z,1.00
2022-09-09T18:55:49.213Z,1.50
2022-09-09T18:58:18.913Z,2.50
2022-09-09T19:00:49.323Z,3.10
2022-09-09T19:03:19.052Z,3.40
2022-09-09T19:05:51.507Z,4.60
2022-09-09T19:08:21.374Z,4.60
2022-09-09T19:10:51.742Z,3.20
2022-09-09T19:13:21.440Z,4.50
2022-09-09T19:15:51.667Z,4.40
2022-09-09T19:18:21.424Z,5.40
2022-09-09T19:20:54.025Z,6.20
2022-09-09T19:23:29.690Z,5.20
2022-09-09T19:26:06.218Z,5.60
2022-09-09T19:28:36.166Z,6.60
2022-09-09T19:31:07.079Z,5.80
2022-09-09T19:33:37.580Z,7.60
2022-09-09T19:36:10.756Z,7.50
2022-09-09T19:38:41.542Z,8.00
2022-09-09T19:41:13.630Z,6.90
2022-09-09T19:43:44.328Z,8.10
2022-09-09T19:46:15.667Z,7.70
2022-09-09T19:48:45.717Z,7.90
2022-09-09T19:51:21.594Z,6.70
2022-09-09T19:53:53.594Z,6.10
2022-09-09T19:56:25.639Z,6.20
2022-09-09T19:58:55.970Z,6.10
2022-09-09T20:01:28.084Z,5.40
2022-09-09T20:04:01.114Z,5.10
2022-09-09T20:06:35.153Z,4.90
2022-09-09T20:09:06.040Z,5.80
2022-09-09T20:11:38.441Z,6.50
2022-09-09T20:14:09.411Z,6.20
2022-09-09T20:16:39.310Z,6.40
2022-09-09T20:19:11.990Z,7.20
2022-09-09T20:21:48.001Z,8.50
2022-09-09T20:24:20.094Z,9.80
2022-09-09T20:26:50.716Z,8.20
2022-09-09T20:29:22.096Z,9.30
2022-09-09T20:31:52.043Z,9.40
2022-09-09T20:34:25.769Z,10.30
2022-09-09T20:36:59.275Z,11.10
2022-09-09T20:39:30.257Z,10.70
2022-09-09T20:42:00.468Z,9.80
2022-09-09T20:44:31.334Z,8.10
2022-09-09T20:47:06.479Z,9.80
2022-09-09T20:49:37.680Z,9.80
2022-09-09T20:52:11.669Z,9.00
2022-09-09T20:54:41.874Z,8.70
2022-09-09T20:57:11.948Z,9.30
2022-09-09T20:59:42.367Z,9.60
2022-09-09T21:02:13.821Z,8.00
2022-09-09T21:04:44.718Z,6.60
2022-09-09T21:07:17.027Z,4.20
2022-09-09T21:09:47.078Z,4.20
2022-09-09T21:12:16.956Z,4.00
2022-09-09T21:14:46.673Z,5.30
2022-09-09T21:17:17.400Z,7.20
2022-09-09T21:19:47.129Z,8.50
2022-09-09T21:22:19.595Z,9.30
2022-09-09T21:24:50.820Z,7.90
2022-09-09T21:27:20.553Z,9.30
2022-09-09T21:29:50.273Z,11.40
2022-09-09T21:32:21.399Z,11.30
2022-09-09T21:34:51.194Z,11.70
2022-09-09T21:37:24.066Z,11.30
2022-09-09T21:39:53.833Z,11.30
2022-09-09T21:42:23.557Z,11.30
2022-09-09T21:44:53.252Z,11.20
2022-09-09T21:47:22.957Z,12.00
2022-09-09T21:49:52.664Z,12.90
2022-09-09T21:52:24.974Z,15.00
2022-09-09T21:54:54.788Z,16.80
2022-09-09T21:57:25.146Z,18.30
2022-09-09T21:59:55.469Z,19.10
2022-09-09T22:02:25.376Z,20.00
2022-09-09T22:04:55.151Z,19.90
2022-09-09T22:07:27.518Z,19.40
2022-09-09T22:09:57.552Z,20.30
2022-09-09T22:12:27.861Z,20.10
2022-09-09T22:14:58.449Z,18.80
2022-09-09T22:17:28.278Z,15.00
2022-09-09T22:19:59.055Z,12.80
2022-09-09T22:22:31.540Z,11.70
2022-09-09T22:25:01.516Z,11.30
2022-09-09T22:27:31.233Z,10.40
2022-09-09T22:30:00.960Z,9.40
2022-09-09T22:32:31.228Z,9.00
2022-09-09T22:35:00.944Z,9.10
2022-09-09T22:37:33.267Z,9.10
2022-09-09T22:40:03.079Z,8.70
2022-09-09T22:42:33.086Z,7.70
2022-09-09T22:45:02.815Z,8.60
2022-09-09T22:47:32.547Z,6.10
2022-09-09T22:50:02.631Z,5.70
2022-09-09T22:52:35.012Z,5.20
2022-09-09T22:55:04.702Z,4.60
2022-09-09T22:57:34.434Z,4.00
2022-09-09T23:00:04.300Z,5.30
2022-09-09T23:02:38.726Z,7.30
2022-09-09T23:05:11.218Z,11.40
2022-09-09T23:07:43.579Z,15.30
2022-09-09T23:10:13.509Z,18.90
2022-09-09T23:12:43.801Z,21.80
2022-09-09T23:15:14.671Z,24.00
2022-09-09T23:17:44.589Z,26.40
2022-09-09T23:20:14.400Z,28.30
2022-09-09T23:22:46.821Z,30.00
2022-09-09T23:25:16.568Z,31.60
2022-09-09T23:27:46.321Z,30.80
2022-09-09T23:30:16.930Z,32.30
2022-09-09T23:32:47.039Z,31.70
2022-09-09T23:35:17.381Z,33.10
2022-09-09T23:37:49.748Z,33.50
2022-09-09T23:40:19.648Z,35.00
2022-09-09T23:42:49.390Z,37.90
2022-09-09T23:45:19.297Z,39.50
2022-09-09T23:47:49.017Z,41.60
2022-09-09T23:50:19.088Z,43.70
2022-09-09T23:52:52.301Z,43.40
2022-09-09T23:55:23.799Z,44.90
2022-09-09T23:57:55.045Z,43.70
